Time;durP1;ratioP1;P1;durP2;ratioP2;P2;SDS_P1;SDS_P2;PMS_P1;PMS_P2;Temp;Humidity;BMP_temperature;BMP_pressure;BME280_temperature;BME280_humidity;BME280_pressure;Samples;Min_cycle;Max_cycle;Signal;HPM_P1;HPM_P2
2021/07/27 00:19:40;;;;;;;0.10;0.10;;;;;;;22.44;50.97;100474.13;5033966;28;20048;-55
2021/07/27 00:22:06;;;;;;;0.10;0.10;;;;;;;22.38;50.81;100466.72;5029434;28;20515;-58
2021/07/27 00:24:32;;;;;;;0.10;0.10;;;;;;;22.42;50.68;100475.22;5011804;28;20053;-55
2021/07/27 00:26:59;;;;;;;0.10;0.10;;;;;;;22.42;50.53;100476.06;5029677;28;20047;-54
2021/07/27 00:29:25;;;;;;;0.10;0.10;;;;;;;22.42;50.83;100470.75;5029177;28;20148;-52
2021/07/27 00:31:51;;;;;;;0.70;0.28;;;;;;;22.31;51.05;100468.28;5011820;28;20054;-56
2021/07/27 00:34:17;;;;;;;0.20;0.20;;;;;;;22.30;51.20;100471.91;5029312;28;20049;-56
2021/07/27 00:36:43;;;;;;;0.20;0.20;;;;;;;22.30;51.25;100478.06;5029451;28;20080;-56
2021/07/27 00:39:09;;;;;;;0.05;0.05;;;;;;;22.24;51.72;100472.50;5029381;28;20040;-55
2021/07/27 00:41:35;;;;;;;0.10;0.10;;;;;;;22.16;51.84;100469.69;5029393;28;20045;-55
2021/07/27 00:44:01;;;;;;;0.10;0.10;;;;;;;22.27;51.25;100485.50;5029373;28;20511;-56
2021/07/27 00:46:28;;;;;;;0.05;0.05;;;;;;;22.31;50.61;100479.75;5028999;28;20049;-56
2021/07/27 00:48:54;;;;;;;0.70;0.70;;;;;;;22.28;50.43;100471.22;5029350;28;20052;-55
2021/07/27 00:51:20;;;;;;;0.10;0.10;;;;;;;22.31;50.70;100477.09;5011399;28;20145;-55
2021/07/27 00:53:46;;;;;;;0.30;0.30;;;;;;;22.36;50.59;100481.13;5011687;28;20527;-55
2021/07/27 00:56:12;;;;;;;0.00;0.00;;;;;;;22.36;50.25;100471.31;5029023;28;20065;-55
2021/07/27 00:58:38;;;;;;;0.30;0.30;;;;;;;22.41;49.91;100474.41;5011621;28;20045;-55
2021/07/27 01:01:04;;;;;;;1.35;1.08;;;;;;;22.40;49.82;100471.88;5011554;28;20422;-57
2021/07/27 01:03:30;;;;;;;0.13;0.13;;;;;;;22.40;50.07;100475.38;5028956;28;20053;-56
2021/07/27 01:05:56;;;;;;;0.30;0.30;;;;;;;22.40;49.95;100470.06;5028966;28;20104;-55
2021/07/27 01:08:22;;;;;;;0.30;0.30;;;;;;;22.42;50.04;100475.22;5028957;28;20115;-56
2021/07/27 01:10:48;;;;;;;0.10;0.10;;;;;;;22.41;49.54;100469.09;5029008;28;20520;-56
2021/07/27 01:13:14;;;;;;;0.10;0.10;;;;;;;22.32;50.06;100451.31;5029001;28;20049;-56
2021/07/27 01:15:40;;;;;;;0.20;0.20;;;;;;;22.41;50.20;100471.75;5011432;28;20423;-56
2021/07/27 01:18:09;;;;;;;0.38;0.38;;;;;;;22.32;50.50;100470.78;5029101;28;20042;-56
2021/07/27 01:39:34;;;;;;;0.10;0.10;;;;;;;22.10;52.36;100475.59;5032024;28;20052;-55
2021/07/27 01:42:13;;;;;;;0.15;0.15;;;;;;;22.07;52.30;100473.22;5014920;28;20041;-59
2021/07/27 01:44:47;;;;;;;0.20;0.20;;;;;;;22.05;51.99;100472.53;5032360;28;20084;-57
2021/07/27 01:47:22;;;;;;;0.10;0.10;;;;;;;22.10;52.00;100473.75;5032197;28;20461;-58
2021/07/27 01:49:49;;;;;;;0.20;0.20;;;;;;;22.22;51.57;100458.47;5032136;28;20053;-55
2021/07/27 01:52:16;;;;;;;0.43;0.43;;;;;;;22.47;50.52;100463.19;5031957;28;20053;-56
2021/07/27 01:54:51;;;;;;;0.20;0.20;;;;;;;22.72;50.01;100467.88;5032249;28;20068;-57
2021/07/27 01:57:17;;;;;;;0.20;0.20;;;;;;;22.96;49.47;100461.19;5032025;28;20064;-56
2021/07/27 02:00:02;;;;;;;0.15;0.15;;;;;;;23.20;48.89;100464.13;4981870;28;20160;-56
2021/07/27 02:02:31;;;;;;;0.40;0.40;;;;;;;23.44;48.23;100466.22;5031930;28;20200;-55
2021/07/27 02:04:57;;;;;;;0.30;0.30;;;;;;;23.66;47.59;100463.94;5032134;28;20053;-58
2021/07/27 02:07:23;;;;;;;0.22;0.22;;;;;;;23.86;47.15;100464.63;5014488;28;20065;-58
2021/07/27 02:09:55;;;;;;;0.20;0.20;;;;;;;24.10;46.47;100469.31;5014460;28;20045;-56
2021/07/27 02:12:30;;;;;;;0.22;0.22;;;;;;;24.35;45.62;100465.84;5032150;28;20061;-60
2021/07/27 02:15:05;;;;;;;0.13;0.13;;;;;;;24.54;45.08;100460.28;4999486;28;20050;-57
2021/07/27 02:17:34;;;;;;;0.20;0.20;;;;;;;24.75;44.44;100463.41;4997495;28;20128;-57
2021/07/27 02:20:01;;;;;;;0.20;0.20;;;;;;;24.98;43.96;100457.50;5028576;28;20056;-57
2021/07/27 02:22:27;;;;;;;0.15;0.15;;;;;;;25.12;43.20;100443.53;5033649;28;20049;-57
2021/07/27 02:24:53;;;;;;;0.20;0.20;;;;;;;25.34;42.79;100469.63;5051591;28;20126;-56
2021/07/27 02:27:19;;;;;;;0.22;0.22;;;;;;;25.58;42.32;100467.03;5051272;28;20052;-59
2021/07/27 02:29:46;;;;;;;0.30;0.30;;;;;;;25.76;41.72;100454.34;5051354;28;20466;-58
2021/07/27 02:32:12;;;;;;;0.20;0.20;;;;;;;26.02;41.51;100472.91;5051317;28;20044;-59
2021/07/27 02:34:38;;;;;;;0.20;0.20;;;;;;;26.18;41.17;100464.03;5050575;28;20621;-58
2021/07/27 02:37:09;;;;;;;0.30;0.30;;;;;;;26.37;40.63;100463.69;5051847;28;20081;-60
2021/07/27 02:39:37;;;;;;;0.22;0.22;;;;;;;26.47;40.10;100453.63;5033927;28;20071;-57
2021/07/27 02:42:03;;;;;;;0.43;0.43;;;;;;;26.75;39.82;100462.91;5033595;28;20048;-59
2021/07/27 02:44:29;;;;;;;0.40;0.40;;;;;;;26.82;39.29;100447.00;5051121;28;20041;-58
2021/07/27 02:46:55;;;;;;;0.20;0.20;;;;;;;27.06;38.85;100464.81;5033303;28;20059;-58
2021/07/27 02:49:21;;;;;;;0.10;0.10;;;;;;;27.15;38.54;100469.13;5050814;28;20049;-58
2021/07/27 02:51:51;;;;;;;0.25;0.25;;;;;;;27.26;38.20;100471.41;5050790;28;20071;-58
2021/07/27 02:54:17;;;;;;;0.30;0.30;;;;;;;27.36;38.11;100458.59;5050820;28;20045;-60
2021/07/27 02:56:43;;;;;;;0.15;0.15;;;;;;;27.56;37.55;100467.88;5049511;28;20098;-57
2021/07/27 02:59:09;;;;;;;0.30;0.30;;;;;;;27.80;37.42;100464.19;5050770;28;20133;-57
2021/07/27 03:01:36;;;;;;;0.20;0.20;;;;;;;28.04;37.17;100466.69;5050434;28;20471;-57
2021/07/27 03:04:02;;;;;;;0.20;0.20;;;;;;;28.22;36.93;100466.34;5050795;28;20049;-57
2021/07/27 03:06:28;;;;;;;0.40;0.40;;;;;;;28.39;36.29;100465.19;5032607;28;20080;-56
2021/07/27 03:11:20;;;;;;;0.43;0.43;;;;;;;28.65;35.74;100465.56;5049468;28;20049;-61
2021/07/27 03:13:46;;;;;;;0.35;0.35;;;;;;;28.81;35.76;100464.56;5050590;28;20036;-61
2021/07/27 03:16:22;;;;;;;0.30;0.30;;;;;;;29.09;35.25;100462.03;5032662;28;20507;-61
2021/07/27 03:18:49;;;;;;;0.57;0.57;;;;;;;29.20;34.97;100466.91;5045770;28;20045;-60
2021/07/27 03:21:21;;;;;;;0.22;0.22;;;;;;;29.34;34.57;100460.69;5030133;28;20053;-59
2021/07/27 03:23:47;;;;;;;0.77;0.77;;;;;;;29.56;34.42;100469.59;5030511;28;20176;-59
2021/07/27 03:26:13;;;;;;;0.30;0.30;;;;;;;29.65;34.11;100457.69;5030298;28;20091;-59
2021/07/27 03:28:42;;;;;;;0.52;0.52;;;;;;;29.83;33.91;100458.09;5030199;28;20503;-60
2021/07/27 03:31:08;;;;;;;;;;;;;;;29.96;34.02;100461.75;5013559;28;20057;-60
2021/07/27 03:33:34;;;;;;;0.30;0.30;;;;;;;30.10;33.83;100459.16;5030031;28;20343;-60
2021/07/27 03:36:00;;;;;;;0.20;0.20;;;;;;;30.14;33.80;100452.34;5030068;28;20050;-59
2021/07/27 03:38:27;;;;;;;0.22;0.22;;;;;;;30.18;33.78;100467.09;5012261;28;20184;-60
2021/07/27 03:41:02;;;;;;;0.20;0.20;;;;;;;30.30;33.75;100466.34;5030087;28;20056;-59
2021/07/27 03:43:28;;;;;;;0.30;0.30;;;;;;;30.41;33.86;100455.06;5029943;28;20045;-60
2021/07/27 03:45:54;;;;;;;0.40;0.40;;;;;;;30.56;34.00;100454.94;5012123;28;20056;-59
2021/07/27 03:48:20;;;;;;;0.20;0.20;;;;;;;30.74;33.57;100457.94;5029746;28;20041;-60
2021/07/27 03:50:46;;;;;;;0.38;0.38;;;;;;;30.72;33.20;100446.53;5029927;28;20423;-60
2021/07/27 03:53:16;;;;;;;0.40;0.40;;;;;;;30.78;33.10;100455.69;5029808;28;20049;-60
2021/07/27 03:55:43;;;;;;;2.20;0.50;;;;;;;30.86;32.92;100455.50;5029968;28;20058;-60
2021/07/27 03:58:09;;;;;;;0.20;0.20;;;;;;;30.95;32.81;100443.50;5029699;28;20049;-60
2021/07/27 04:00:35;;;;;;;0.55;0.55;;;;;;;31.04;32.47;100444.19;5029552;28;20104;-60
2021/07/27 04:03:01;;;;;;;0.55;0.55;;;;;;;31.12;32.67;100454.81;5029830;28;20057;-59
2021/07/27 04:05:27;;;;;;;0.85;0.85;;;;;;;31.30;32.05;100452.38;5011925;28;20049;-60
2021/07/27 04:07:52;;;;;;;0.30;0.30;;;;;;;31.44;31.75;100441.41;5011985;28;20099;-59
2021/07/27 04:10:19;;;;;;;0.20;0.20;;;;;;;31.61;31.61;100444.56;5029502;28;20056;-60
2021/07/27 04:12:45;;;;;;;0.40;0.40;;;;;;;31.76;31.44;100450.63;5029750;28;20049;-60
2021/07/27 04:15:11;;;;;;;0.40;0.40;;;;;;;31.91;31.14;100447.69;5011744;28;20474;-59
2021/07/27 04:17:36;;;;;;;0.30;0.30;;;;;;;32.01;31.04;100445.41;5029408;28;20120;-61
2021/07/27 04:20:03;;;;;;;0.30;0.30;;;;;;;32.17;30.19;100446.88;5029159;28;20418;-61
2021/07/27 04:22:29;;;;;;;0.28;0.28;;;;;;;32.24;29.68;100450.41;5011764;28;20046;-60
2021/07/27 04:24:56;;;;;;;0.20;0.20;;;;;;;32.30;29.53;100446.84;5011979;28;20050;-60
2021/07/27 04:27:24;;;;;;;0.50;0.50;;;;;;;32.29;29.22;100434.41;5029219;28;20132;-60
2021/07/27 04:29:51;;;;;;;0.38;0.38;;;;;;;32.25;29.09;100401.56;4995819;28;20049;-60
2021/07/27 04:32:16;;;;;;;0.30;0.30;;;;;;;32.68;28.86;100434.34;5029237;28;20515;-60
2021/07/27 04:34:42;;;;;;;0.20;0.20;;;;;;;32.81;28.93;100428.88;5029187;28;20046;-60
2021/07/27 04:37:09;;;;;;;0.20;0.20;;;;;;;33.03;28.00;100432.94;5029238;28;20057;-60
2021/07/27 04:39:36;;;;;;;0.30;0.30;;;;;;;33.17;27.91;100430.19;5029257;28;20056;-60
2021/07/27 04:42:02;;;;;;;0.20;0.20;;;;;;;33.28;27.32;100424.09;5029387;28;20141;-59
2021/07/27 04:44:28;;;;;;;0.25;0.25;;;;;;;33.39;26.96;100424.22;5029099;28;20136;-59
2021/07/27 04:46:54;;;;;;;0.13;0.13;;;;;;;33.43;25.81;100424.59;5029282;28;20072;-59
2021/07/27 04:49:20;;;;;;;0.20;0.20;;;;;;;33.54;25.70;100424.72;5029245;28;20054;-59
2021/07/27 04:51:46;;;;;;;0.20;0.20;;;;;;;33.60;25.94;100425.75;5011617;28;20049;-60
2021/07/27 04:54:16;;;;;;;0.40;0.40;;;;;;;33.72;25.80;100415.88;5029219;28;20518;-59
2021/07/27 04:56:43;;;;;;;0.40;0.40;;;;;;;33.81;25.70;100408.28;5012143;28;20049;-59
2021/07/27 04:59:09;;;;;;;0.25;0.25;;;;;;;33.86;25.80;100408.47;5032305;28;20061;-59
2021/07/27 05:01:39;;;;;;;1.55;1.45;;;;;;;33.88;25.88;100409.06;5032784;28;20057;-59
2021/07/27 05:04:07;;;;;;;0.22;0.22;;;;;;;34.08;25.56;100408.88;5033074;28;20053;-60
2021/07/27 05:06:33;;;;;;;0.20;0.20;;;;;;;34.23;25.17;100406.69;5032784;28;20118;-59
2021/07/27 05:08:59;;;;;;;0.28;0.28;;;;;;;34.20;25.27;100397.09;5033106;28;20045;-59
2021/07/27 05:11:25;;;;;;;0.50;0.50;;;;;;;34.31;25.33;100401.78;5032576;28;20056;-60
2021/07/27 05:13:53;;;;;;;0.20;0.20;;;;;;;34.32;25.25;100410.75;5032917;28;20061;-63
2021/07/27 05:16:20;;;;;;;0.35;0.35;;;;;;;34.37;25.28;100403.59;5032814;28;20045;-59
2021/07/27 05:18:47;;;;;;;0.50;0.50;;;;;;;34.47;24.81;100400.34;5018994;28;20049;-59
2021/07/27 05:21:15;;;;;;;0.45;0.45;;;;;;;34.51;24.98;100388.84;5052570;28;20087;-59
2021/07/27 05:23:41;;;;;;;0.20;0.20;;;;;;;34.53;24.67;100397.56;5052452;28;20084;-60
2021/07/27 05:26:07;;;;;;;0.28;0.28;;;;;;;34.51;24.68;100394.25;5052422;28;20522;-59
2021/07/27 05:28:34;;;;;;;0.20;0.20;;;;;;;34.71;24.66;100395.94;5018169;28;20518;-59
2021/07/27 05:31:03;;;;;;;0.20;0.20;;;;;;;34.76;23.75;100405.03;5052389;28;20128;-59
2021/07/27 05:33:29;;;;;;;0.30;0.30;;;;;;;34.85;21.47;100389.28;5034445;28;20513;-60
2021/07/27 05:35:55;;;;;;;0.20;0.20;;;;;;;34.51;20.37;100401.56;5052314;28;20502;-60
2021/07/27 05:38:21;;;;;;;0.20;0.20;;;;;;;34.59;21.27;100406.66;5034547;28;20053;-59
2021/07/27 05:40:51;;;;;;;0.73;0.25;;;;;;;34.60;20.88;100402.91;5034484;28;20579;-60
2021/07/27 05:43:17;;;;;;;0.10;0.10;;;;;;;34.61;20.26;100398.34;5052375;28;20473;-60
2021/07/27 05:45:43;;;;;;;0.10;0.10;;;;;;;34.72;22.12;100398.41;5051934;28;20049;-60
2021/07/27 05:48:09;;;;;;;0.10;0.10;;;;;;;34.70;21.90;100392.38;5052273;28;20135;-60
2021/07/27 05:50:35;;;;;;;0.20;0.20;;;;;;;34.79;21.05;100391.00;5051783;28;20055;-60
2021/07/27 05:53:01;;;;;;;0.20;0.20;;;;;;;34.80;22.01;100394.56;5052142;28;20469;-60
2021/07/27 05:55:27;;;;;;;0.20;0.20;;;;;;;34.91;20.37;100391.06;5051813;28;20087;-59
2021/07/27 05:57:53;;;;;;;0.17;0.17;;;;;;;34.70;20.27;100389.66;5034260;28;20076;-59
2021/07/27 06:00:20;;;;;;;0.17;0.17;;;;;;;34.69;21.79;100396.16;5034244;28;20045;-59
2021/07/27 06:02:46;;;;;;;0.13;0.13;;;;;;;34.80;21.92;100395.38;5033881;28;20053;-59
2021/07/27 06:05:12;;;;;;;0.15;0.15;;;;;;;34.82;22.38;100392.44;5051806;28;20522;-60
2021/07/27 06:07:38;;;;;;;0.10;0.10;;;;;;;34.83;20.78;100397.63;5051664;28;20578;-60
2021/07/27 06:10:04;;;;;;;0.25;0.25;;;;;;;34.97;20.48;100399.13;5051603;28;20047;-60
2021/07/27 06:12:30;;;;;;;0.20;0.20;;;;;;;34.96;21.84;100383.88;5051482;28;20045;-61
2021/07/27 06:14:56;;;;;;;0.25;0.25;;;;;;;34.98;22.04;100395.34;5051741;28;20056;-60
2021/07/27 06:17:22;;;;;;;0.22;0.22;;;;;;;35.05;21.99;100395.25;5051555;28;20053;-60
2021/07/27 06:19:49;;;;;;;0.40;0.40;;;;;;;35.07;21.31;100392.31;5038373;28;20131;-59
2021/07/27 06:22:17;;;;;;;0.70;0.70;;;;;;;35.19;21.53;100396.75;5031595;28;20069;-59
2021/07/27 06:24:43;;;;;;;0.20;0.20;;;;;;;35.28;21.38;100389.91;5031491;28;20049;-59
2021/07/27 06:27:10;;;;;;;0.52;0.52;;;;;;;35.58;20.94;100400.75;5013712;28;20547;-59
2021/07/27 06:29:36;;;;;;;0.10;0.10;;;;;;;36.39;19.53;100394.53;5031284;28;20053;-59
2021/07/27 06:32:03;;;;;;;0.10;0.10;;;;;;;39.41;15.92;100400.47;5013674;28;20136;-60
2021/07/27 06:34:29;;;;;;;0.60;0.60;;;;;;;43.51;11.98;100397.84;5031095;28;20458;-59
2021/07/27 06:36:55;;;;;;;0.70;0.70;;;;;;;45.91;10.76;100393.31;5031265;28;20053;-59
2021/07/27 06:39:22;;;;;;;0.77;0.77;;;;;;;47.62;9.45;100387.91;5031524;28;20049;-59
2021/07/27 06:41:48;;;;;;;0.77;0.77;;;;;;;48.48;9.13;100388.31;5030989;28;20512;-60
2021/07/27 06:44:14;;;;;;;0.70;0.70;;;;;;;48.82;9.00;100396.72;5031212;28;20057;-58
2021/07/27 06:46:40;;;;;;;0.85;0.85;;;;;;;48.82;8.55;100387.59;5030943;28;20480;-57
2021/07/27 06:49:06;;;;;;;4.47;1.05;;;;;;;49.12;7.66;100396.94;5031145;28;20045;-58
2021/07/27 06:51:32;;;;;;;0.47;0.47;;;;;;;48.94;7.64;100402.47;5030521;28;20052;-58
2021/07/27 06:53:58;;;;;;;0.30;0.30;;;;;;;47.83;7.61;100391.78;5030967;28;20053;-57
2021/07/27 06:56:24;;;;;;;0.30;0.30;;;;;;;46.13;9.28;100386.31;5030951;28;20549;-58
2021/07/27 06:58:50;;;;;;;0.30;0.30;;;;;;;42.02;11.48;100366.94;5012988;28;20053;-58
2021/07/27 07:01:16;;;;;;;0.25;0.25;;;;;;;39.54;14.06;100383.63;5030746;28;20474;-57
2021/07/27 07:03:42;;;;;;;0.10;0.10;;;;;;;37.93;16.12;100379.75;5012950;28;20061;-56
2021/07/27 07:06:11;;;;;;;0.10;0.10;;;;;;;36.86;17.32;100390.66;5030732;28;20076;-57
2021/07/27 07:08:37;;;;;;;0.10;0.10;;;;;;;36.15;17.25;100384.75;5030412;28;20493;-56
2021/07/27 07:11:04;;;;;;;0.30;0.30;;;;;;;35.66;18.33;100381.41;5012998;28;20045;-58
2021/07/27 07:13:31;;;;;;;0.08;0.08;;;;;;;35.30;19.41;100378.84;5030516;28;21024;-56
2021/07/27 07:15:57;;;;;;;0.10;0.10;;;;;;;34.68;18.84;100340.22;5030478;28;20049;-58
2021/07/27 07:18:24;;;;;;;0.10;0.10;;;;;;;34.65;20.04;100381.41;5030428;28;20064;-58
2021/07/27 07:20:51;;;;;;;0.10;0.10;;;;;;;34.35;19.69;100377.75;5012102;28;20041;-57
2021/07/27 07:23:18;;;;;;;0.20;0.20;;;;;;;34.36;20.42;100374.00;5012994;28;20045;-57
2021/07/27 07:25:46;;;;;;;0.10;0.10;;;;;;;34.25;21.11;100361.19;5012459;28;20049;-58
2021/07/27 07:28:13;;;;;;;0.10;0.10;;;;;;;34.22;20.51;100375.19;5030309;28;20061;-58
2021/07/27 07:30:40;;;;;;;0.10;0.10;;;;;;;33.79;20.07;100361.63;5029960;28;20041;-59
2021/07/27 07:33:06;;;;;;;0.10;0.10;;;;;;;33.26;20.31;100377.44;5012731;28;20096;-59
2021/07/27 07:35:32;;;;;;;0.03;0.03;;;;;;;33.16;20.27;100377.91;5029942;28;20470;-58
2021/07/27 07:37:58;;;;;;;0.10;0.10;;;;;;;33.18;20.87;100370.38;5029871;28;20049;-57
2021/07/27 07:40:24;;;;;;;0.20;0.20;;;;;;;33.00;20.79;100379.22;5030168;28;20050;-57
2021/07/27 07:42:51;;;;;;;0.00;0.00;;;;;;;32.95;20.82;100375.53;5029741;28;20060;-57
2021/07/27 07:45:17;;;;;;;0.00;0.00;;;;;;;32.84;21.39;100366.22;5030075;28;20045;-58
2021/07/27 07:47:43;;;;;;;0.10;0.10;;;;;;;32.97;21.90;100368.00;5029648;28;20085;-58
2021/07/27 07:50:10;;;;;;;0.03;0.03;;;;;;;32.99;21.83;100364.03;5029938;28;20053;-57
2021/07/27 07:52:36;;;;;;;0.50;0.50;;;;;;;32.99;21.22;100366.72;5029445;28;20053;-56
2021/07/27 07:55:05;;;;;;;0.10;0.10;;;;;;;32.89;21.62;100355.53;5029910;28;20158;-57
2021/07/27 07:57:35;;;;;;;0.30;0.30;;;;;;;32.87;21.89;100363.06;5029446;28;20091;-59
2021/07/27 08:00:01;;;;;;;0.10;0.10;;;;;;;32.80;21.74;100356.84;5029794;28;20131;-57
2021/07/27 08:02:38;;;;;;;0.00;0.00;;;;;;;32.71;22.25;100352.75;5029533;28;20049;-57
2021/07/27 08:05:05;;;;;;;0.10;0.10;;;;;;;32.65;22.57;100353.59;5029816;28;20049;-58
2021/07/27 08:07:33;;;;;;;0.00;0.00;;;;;;;32.53;22.21;100349.06;5011901;28;20432;-55
2021/07/27 08:10:00;;;;;;;0.08;0.08;;;;;;;32.51;22.69;100362.78;5029547;28;20132;-56
2021/07/27 08:12:25;;;;;;;0.20;0.20;;;;;;;32.45;23.16;100352.81;5011865;28;20053;-59
2021/07/27 08:14:52;;;;;;;0.00;0.00;;;;;;;32.37;23.22;100353.88;5029344;28;20050;-57
2021/07/27 08:17:17;;;;;;;0.10;0.10;;;;;;;32.33;23.08;100354.53;5029610;28;20115;-56
2021/07/27 08:19:46;;;;;;;1.85;1.30;;;;;;;32.24;23.19;100355.78;5029232;28;20042;-58
2021/07/27 08:22:12;;;;;;;0.00;0.00;;;;;;;32.12;23.20;100347.53;5029448;28;20053;-58
2021/07/27 08:24:38;;;;;;;0.03;0.03;;;;;;;32.08;23.56;100345.44;5029259;28;20076;-58
2021/07/27 08:27:10;;;;;;;0.20;0.10;;;;;;;31.97;23.10;100344.19;5029397;28;20053;-58
2021/07/27 08:29:36;;;;;;;0.10;0.10;;;;;;;31.94;23.60;100348.13;5029297;28;20055;-57
2021/07/27 08:32:07;;;;;;;0.10;0.10;;;;;;;31.82;23.90;100355.22;5029103;28;20050;-58
2021/07/27 08:34:44;;;;;;;0.10;0.10;;;;;;;31.77;23.68;100354.22;5033260;28;20057;-59
2021/07/27 08:37:10;;;;;;;0.10;0.10;;;;;;;31.69;24.09;100357.94;5033317;28;20091;-58
2021/07/27 08:39:36;;;;;;;0.10;0.10;;;;;;;31.58;23.56;100342.34;5033295;28;20068;-58
2021/07/27 08:42:04;;;;;;;1.98;0.52;;;;;;;31.56;23.96;100351.72;5033394;28;20053;-57
2021/07/27 08:44:31;;;;;;;0.10;0.10;;;;;;;31.51;23.89;100354.22;5033215;28;20057;-57
2021/07/27 08:47:06;;;;;;;0.10;0.10;;;;;;;31.49;23.82;100348.97;5015495;28;20604;-58
2021/07/27 08:49:33;;;;;;;0.10;0.10;;;;;;;31.45;23.54;100339.63;5033168;28;20069;-58
2021/07/27 08:51:59;;;;;;;0.20;0.20;;;;;;;31.37;23.78;100331.75;5033053;28;20091;-58
2021/07/27 08:54:25;;;;;;;0.10;0.10;;;;;;;31.26;24.66;100324.25;5033239;28;20053;-59
2021/07/27 08:56:52;;;;;;;0.00;0.00;;;;;;;31.19;24.95;100331.50;5032881;28;20057;-57
2021/07/27 08:59:19;;;;;;;0.10;0.10;;;;;;;31.12;24.64;100328.00;5033107;28;20116;-56
2021/07/27 09:01:44;;;;;;;0.00;0.00;;;;;;;31.13;24.67;100330.47;5032804;28;20477;-57
2021/07/27 09:04:11;;;;;;;0.00;0.00;;;;;;;31.10;24.43;100335.44;5033283;28;20045;-56
2021/07/27 09:06:37;;;;;;;0.00;0.00;;;;;;;31.02;24.82;100333.78;5015120;28;20127;-57
2021/07/27 09:09:04;;;;;;;0.10;0.10;;;;;;;30.97;25.07;100334.41;5033160;28;20045;-58
2021/07/27 09:11:30;;;;;;;0.00;0.00;;;;;;;30.97;24.94;100337.09;5033047;28;20060;-56
2021/07/27 09:13:56;;;;;;;0.10;0.10;;;;;;;30.95;25.17;100333.78;5032667;28;20057;-56
2021/07/27 09:16:22;;;;;;;0.10;0.10;;;;;;;30.96;25.08;100334.59;5032746;28;20049;-57
2021/07/27 09:19:00;;;;;;;0.10;0.10;;;;;;;30.87;25.06;100320.44;5032292;28;20058;-58
2021/07/27 09:21:27;;;;;;;0.00;0.00;;;;;;;30.88;24.89;100324.81;5032848;28;20316;-58
2021/07/27 09:23:54;;;;;;;0.10;0.10;;;;;;;30.87;24.24;100327.69;5014824;28;20480;-57
2021/07/27 09:26:21;;;;;;;0.10;0.10;;;;;;;30.86;24.96;100323.31;5015110;28;20072;-57
2021/07/27 09:28:49;;;;;;;0.10;0.10;;;;;;;30.82;25.33;100325.63;5014883;28;20088;-58
2021/07/27 09:31:15;;;;;;;0.10;0.10;;;;;;;30.88;24.73;100326.66;5032526;28;20049;-56
2021/07/27 09:34:10;;;;;;;0.35;0.35;;;;;;;30.87;24.63;100320.44;5003927;28;20392;-57
2021/07/27 09:37:03;;;;;;;0.10;0.10;;;;;;;30.90;25.01;100325.41;5032027;28;20080;-57
2021/07/27 09:39:49;;;;;;;0.32;0.32;;;;;;;30.93;24.55;100325.00;5032097;28;20057;-58
2021/07/27 09:42:35;;;;;;;0.10;0.10;;;;;;;30.89;25.23;100315.66;5032229;28;20136;-58
2021/07/27 09:45:21;;;;;;;0.00;0.00;;;;;;;30.86;25.14;100307.97;5017322;28;20083;-59
2021/07/27 09:48:07;;;;;;;0.10;0.10;;;;;;;30.87;25.04;100311.50;5032288;28;20041;-58
2021/07/27 09:50:53;;;;;;;0.08;0.08;;;;;;;30.89;24.42;100309.47;5017219;28;20415;-58
2021/07/27 09:53:40;;;;;;;0.10;0.10;;;;;;;30.85;25.08;100309.03;5031792;28;20466;-57
2021/07/27 09:56:26;;;;;;;0.05;0.05;;;;;;;30.83;23.75;100310.25;5032096;28;20507;-57
2021/07/27 09:59:15;;;;;;;0.10;0.10;;;;;;;30.80;25.15;100302.56;5032077;28;20503;-56
2021/07/27 10:02:04;;;;;;;;;;;;;;;30.77;23.98;100298.41;5017478;28;20064;-57
2021/07/27 10:04:51;;;;;;;0.00;0.00;;;;;;;30.64;23.42;100300.25;5031767;28;20306;-57
2021/07/27 10:07:37;;;;;;;0.00;0.00;;;;;;;30.71;24.61;100296.53;5017090;28;20056;-58
2021/07/27 10:10:34;;;;;;;0.00;0.00;;;;;;;30.73;24.71;100290.91;5031807;28;20317;-57
2021/07/27 10:13:21;;;;;;;0.43;0.43;;;;;;;30.74;25.22;100288.03;5031643;28;20140;-56
2021/07/27 10:16:18;;;;;;;0.00;0.00;;;;;;;30.77;24.29;100287.63;5016984;28;20053;-57
2021/07/27 10:19:20;;;;;;;0.10;0.10;;;;;;;30.75;24.99;100272.69;5018326;28;20045;-56
2021/07/27 10:22:07;;;;;;;0.00;0.00;;;;;;;30.75;25.22;100278.91;5031421;28;20057;-58
2021/07/27 10:24:53;;;;;;;0.10;0.10;;;;;;;30.76;25.11;100277.88;5031320;28;20045;-56
2021/07/27 10:27:49;;;;;;;0.05;0.05;;;;;;;30.78;25.19;100272.28;5016754;28;20046;-58
2021/07/27 10:30:38;;;;;;;0.00;0.00;;;;;;;30.79;24.79;100277.44;5031441;28;20057;-56
2021/07/27 10:33:30;;;;;;;0.30;0.30;;;;;;;30.84;25.28;100271.47;5031261;28;20142;-56
2021/07/27 10:36:27;;;;;;;0.10;0.10;;;;;;;30.82;24.96;100268.97;5031125;28;20192;-58
2021/07/27 10:39:14;;;;;;;7.38;0.80;;;;;;;30.82;25.08;100268.97;5016724;28;20053;-57
2021/07/27 10:42:06;;;;;;;0.30;0.30;;;;;;;30.86;25.15;100266.69;5031053;28;20053;-59
2021/07/27 10:44:53;;;;;;;0.10;0.10;;;;;;;30.88;24.29;100260.06;5030984;28;20053;-58
2021/07/27 10:47:38;;;;;;;0.38;0.38;;;;;;;30.87;24.18;100261.09;5031132;28;20064;-57
2021/07/27 10:50:28;;;;;;;0.10;0.10;;;;;;;30.91;23.39;100251.56;5016360;28;20150;-56
2021/07/27 10:53:18;;;;;;;0.05;0.05;;;;;;;30.96;24.14;100246.41;5030842;28;20148;-56
2021/07/27 10:56:06;;;;;;;0.00;0.00;;;;;;;30.97;24.39;100250.75;5002511;28;20148;-57
2021/07/27 10:58:52;;;;;;;0.10;0.10;;;;;;;30.94;24.33;100244.91;5030659;28;20061;-56
2021/07/27 11:01:38;;;;;;;0.10;0.10;;;;;;;30.96;24.42;100240.16;5030846;28;20521;-55
2021/07/27 11:04:28;;;;;;;0.00;0.00;;;;;;;31.01;24.71;100232.28;5030968;28;20045;-56
2021/07/27 11:07:17;;;;;;;0.10;0.10;;;;;;;31.05;24.46;100230.03;5015968;28;20507;-56
2021/07/27 11:10:04;;;;;;;0.00;0.00;;;;;;;31.06;24.41;100231.66;5030408;28;20133;-57
2021/07/27 11:12:50;;;;;;;0.10;0.10;;;;;;;31.03;24.36;100227.50;5030247;28;20136;-58
2021/07/27 11:15:36;;;;;;;0.00;0.00;;;;;;;30.90;24.15;100204.03;5030775;28;20080;-57
2021/07/27 11:18:22;;;;;;;0.10;0.10;;;;;;;31.09;24.50;100231.25;5030484;28;20072;-56
2021/07/27 11:21:09;;;;;;;0.00;0.00;;;;;;;31.06;24.61;100226.25;5015877;28;20108;-57
2021/07/27 11:23:55;;;;;;;0.10;0.10;;;;;;;31.04;24.47;100236.44;5015534;28;20110;-56
2021/07/27 11:26:41;;;;;;;0.00;0.00;;;;;;;31.07;24.14;100227.94;5030484;28;20104;-57
2021/07/27 11:29:27;;;;;;;0.10;0.10;;;;;;;31.16;24.24;100226.69;5015694;28;20134;-57
2021/07/27 11:32:15;;;;;;;0.10;0.10;;;;;;;31.14;24.38;100220.66;5030153;28;20069;-56
2021/07/27 11:35:02;;;;;;;0.00;0.00;;;;;;;31.02;24.49;100193.50;5030132;28;20057;-57
2021/07/27 11:37:59;;;;;;;0.10;0.10;;;;;;;31.14;23.31;100215.28;5029653;28;20049;-57
2021/07/27 11:40:45;;;;;;;0.10;0.10;;;;;;;31.15;24.43;100211.53;5029834;28;20467;-57
2021/07/27 11:43:35;;;;;;;0.10;0.10;;;;;;;31.05;24.53;100197.66;5015387;28;20053;-56
2021/07/27 11:46:29;;;;;;;0.00;0.00;;;;;;;31.12;24.58;100198.47;5030137;28;20068;-57
2021/07/27 11:49:14;;;;;;;0.13;0.13;;;;;;;31.08;24.54;100191.81;5016322;28;20049;-56
2021/07/27 11:52:02;;;;;;;0.08;0.08;;;;;;;31.07;24.27;100195.56;5029666;28;20496;-56
2021/07/27 11:54:48;;;;;;;0.10;0.10;;;;;;;31.12;22.74;100193.06;5029724;28;20072;-59
2021/07/27 11:57:34;;;;;;;0.00;0.00;;;;;;;31.08;22.71;100186.44;5001683;28;20060;-58
2021/07/27 12:00:20;;;;;;;0.10;0.10;;;;;;;31.15;22.42;100188.06;5030053;28;20057;-58
2021/07/27 12:03:06;;;;;;;0.10;0.10;;;;;;;31.18;22.54;100176.03;5029651;28;20046;-57
2021/07/27 12:05:53;;;;;;;0.10;0.10;;;;;;;31.12;23.75;100179.59;5029609;28;20057;-57
2021/07/27 12:08:39;;;;;;;0.10;0.10;;;;;;;31.05;22.49;100170.66;5029580;28;20052;-58
2021/07/27 12:11:25;;;;;;;0.00;0.00;;;;;;;31.02;22.95;100165.69;5015041;28;20054;-58
2021/07/27 12:14:11;;;;;;;0.10;0.10;;;;;;;31.09;22.30;100161.91;5029462;28;20100;-57
2021/07/27 12:16:57;;;;;;;0.00;0.00;;;;;;;31.09;24.12;100163.78;5029189;28;20535;-57
2021/07/27 12:19:43;;;;;;;0.10;0.10;;;;;;;31.02;24.07;100160.28;5006780;28;20037;-56
2021/07/27 12:22:28;;;;;;;0.00;0.00;;;;;;;30.97;24.04;100159.03;5029533;28;20187;-57
2021/07/27 12:25:14;;;;;;;0.10;0.10;;;;;;;30.89;24.26;100151.13;5028521;28;20576;-57
2021/07/27 12:28:00;;;;;;;0.03;0.03;;;;;;;30.88;24.01;100160.25;5029306;28;20052;-56